Terminal Aerodrome Forecast
Issued by NWS

Home | Current Version | Previous Version | Text Only | Print | Product List | Glossary Off
Versions: 1 2 3 4 5 6 7 8 9 10 11 12 13 14 15 16

000
FTUS43 KBIS 192300
TAFDIK
TAF
KDIK 192339Z 2000/2024 24005KT P6SM SKC
     FM200300 18005KT P6SM FEW080
     FM201800 27012KT P6SM SCT100=

USA.gov is the U.S. government's official web portal to all federal, state and local government web resources and services.